createdAt,value
2023-02-18T00:00:18.850Z,12.86
2023-02-18T00:03:41.602Z,12.86
2023-02-18T00:07:03.456Z,12.84
2023-02-18T00:10:26.569Z,12.82
2023-02-18T00:14:00.492Z,12.80
2023-02-18T00:17:22.434Z,12.75
2023-02-18T00:20:44.227Z,12.73
2023-02-18T00:24:07.201Z,12.71
2023-02-18T00:27:30.917Z,12.69
2023-02-18T00:30:52.897Z,12.68
2023-02-18T00:34:14.972Z,12.66
2023-02-18T00:37:36.799Z,12.65
2023-02-18T00:40:59.002Z,12.60
2023-02-18T00:44:20.842Z,12.57
2023-02-18T00:47:45.366Z,12.56
2023-02-18T00:51:08.131Z,12.55
2023-02-18T00:54:29.986Z,12.53
2023-02-18T00:57:52.090Z,12.50
2023-02-18T01:01:14.128Z,12.47
2023-02-18T01:04:35.940Z,12.47
2023-02-18T01:07:57.927Z,12.45
2023-02-18T01:11:23.049Z,12.44
2023-02-18T01:14:46.217Z,12.43
2023-02-18T01:18:08.980Z,12.42
2023-02-18T01:21:30.801Z,12.38
2023-02-18T01:24:52.914Z,12.36
2023-02-18T01:28:15.465Z,12.35
2023-02-18T01:31:41.719Z,12.31
2023-02-18T01:35:05.049Z,12.30
2023-02-18T01:38:29.384Z,12.28
2023-02-18T01:41:51.962Z,12.28
2023-02-18T01:45:36.064Z,12.27
2023-02-18T01:48:59.296Z,12.26
2023-02-18T01:52:25.513Z,12.26
2023-02-18T01:55:49.076Z,12.26
2023-02-18T01:59:17.144Z,12.25
2023-02-18T02:02:44.913Z,12.22
2023-02-18T02:06:15.864Z,12.20
2023-02-18T02:09:40.400Z,12.19
2023-02-18T02:13:39.152Z,12.14
2023-02-18T02:17:16.141Z,12.14
2023-02-18T02:21:08.916Z,12.11
2023-02-18T02:24:50.079Z,12.10
2023-02-18T02:28:33.960Z,12.07
2023-02-18T02:32:11.110Z,12.04
2023-02-18T02:35:48.717Z,12.01
2023-02-18T02:39:21.910Z,11.99
2023-02-18T02:42:59.032Z,11.99
2023-02-18T02:46:35.696Z,11.97
2023-02-18T02:50:08.452Z,11.94
2023-02-18T02:53:31.801Z,11.91
2023-02-18T02:57:08.215Z,11.89
2023-02-18T03:00:55.472Z,11.88
2023-02-18T03:04:45.719Z,11.84
2023-02-18T03:08:46.550Z,11.82
2023-02-18T03:12:20.017Z,11.82
2023-02-18T03:15:56.184Z,11.81
2023-02-18T03:19:26.046Z,11.81
2023-02-18T03:22:52.310Z,11.82
2023-02-18T03:26:16.422Z,11.80
2023-02-18T03:29:41.141Z,11.78
2023-02-18T03:33:05.444Z,11.76
2023-02-18T03:36:27.801Z,11.76
2023-02-18T03:39:52.765Z,11.74
2023-02-18T03:43:15.962Z,11.73
2023-02-18T03:46:39.969Z,11.72
2023-02-18T03:50:01.812Z,11.72
2023-02-18T03:53:23.658Z,11.71
2023-02-18T03:56:45.841Z,11.69
2023-02-18T04:00:09.219Z,11.68
2023-02-18T04:03:37.407Z,11.67
2023-02-18T04:06:59.266Z,11.66
2023-02-18T04:10:22.784Z,11.66
2023-02-18T04:13:44.516Z,11.67
2023-02-18T04:17:06.348Z,11.65
2023-02-18T04:20:28.351Z,11.63
2023-02-18T04:23:50.089Z,11.61
2023-02-18T04:27:12.101Z,11.60
2023-02-18T04:30:34.584Z,11.58
2023-02-18T04:33:56.475Z,11.55
2023-02-18T04:37:18.184Z,11.56
2023-02-18T04:40:39.918Z,11.56
2023-02-18T04:44:01.767Z,11.54
2023-02-18T04:47:24.261Z,11.54
2023-02-18T04:50:46.345Z,11.55
2023-02-18T04:54:08.092Z,11.55
2023-02-18T04:57:29.812Z,11.52
2023-02-18T05:00:51.733Z,11.51
2023-02-18T05:04:13.519Z,11.49
2023-02-18T05:07:35.443Z,11.47
2023-02-18T05:10:57.222Z,11.46
2023-02-18T05:14:18.991Z,11.44
2023-02-18T05:17:40.885Z,11.42
2023-02-18T05:21:02.678Z,11.43
2023-02-18T05:24:24.486Z,11.42
2023-02-18T05:27:46.246Z,11.43
2023-02-18T05:31:08.671Z,11.44
2023-02-18T05:34:30.449Z,11.42
2023-02-18T05:37:52.227Z,11.41
2023-02-18T05:41:13.980Z,11.38
2023-02-18T05:44:35.815Z,11.34
2023-02-18T05:47:57.554Z,11.34
2023-02-18T05:51:19.300Z,11.36
2023-02-18T05:54:41.152Z,11.36
2023-02-18T05:58:02.887Z,11.35
2023-02-18T06:01:24.980Z,11.34
2023-02-18T06:04:46.736Z,11.34
2023-02-18T06:08:08.508Z,11.33
2023-02-18T06:11:31.131Z,11.33
2023-02-18T06:14:53.134Z,11.33
2023-02-18T06:18:14.855Z,11.34
2023-02-18T06:21:36.739Z,11.32
2023-02-18T06:24:58.474Z,11.33
2023-02-18T06:28:20.218Z,11.35
2023-02-18T06:31:42.032Z,11.36
2023-02-18T06:35:03.936Z,11.37
2023-02-18T06:38:26.871Z,11.38
2023-02-18T06:41:48.677Z,11.37
2023-02-18T06:45:10.474Z,11.39
2023-02-18T06:48:32.580Z,11.40
2023-02-18T06:51:54.331Z,11.41
2023-02-18T06:55:16.121Z,11.41
2023-02-18T06:58:38.425Z,11.40
2023-02-18T07:02:00.879Z,11.41
2023-02-18T07:05:22.759Z,11.43
2023-02-18T07:08:47.268Z,11.46
2023-02-18T07:12:08.998Z,11.50
2023-02-18T07:15:30.756Z,11.54
2023-02-18T07:19:03.682Z,11.53
2023-02-18T07:22:28.438Z,11.55
2023-02-18T07:25:50.156Z,11.62
2023-02-18T07:29:11.890Z,11.71
2023-02-18T07:32:33.863Z,11.80
2023-02-18T07:35:57.292Z,11.92
2023-02-18T07:39:20.864Z,12.02
2023-02-18T07:42:44.018Z,12.17
2023-02-18T07:46:09.769Z,12.36
2023-02-18T07:49:32.803Z,12.50
2023-02-18T07:52:55.109Z,12.71
2023-02-18T07:56:18.625Z,12.97
2023-02-18T07:59:41.157Z,13.05
2023-02-18T08:03:03.177Z,13.09
2023-02-18T08:06:33.129Z,13.13
2023-02-18T08:09:55.046Z,13.18
2023-02-18T08:13:17.099Z,13.17
2023-02-18T08:16:42.020Z,13.17
2023-02-18T08:20:03.972Z,13.15
2023-02-18T08:23:26.455Z,13.15
2023-02-18T08:26:59.819Z,13.18
2023-02-18T08:30:22.655Z,13.33
2023-02-18T08:33:44.545Z,13.50
2023-02-18T08:37:06.409Z,13.75
2023-02-18T08:40:28.235Z,14.39
2023-02-18T08:43:50.358Z,14.51
2023-02-18T08:48:13.282Z,14.07
2023-02-18T08:51:00.210Z,13.38
2023-02-18T08:54:24.046Z,12.91
2023-02-18T08:57:45.832Z,12.67
2023-02-18T09:01:09.700Z,12.35
2023-02-18T09:04:31.904Z,12.13
2023-02-18T09:07:53.722Z,12.18
2023-02-18T09:11:16.090Z,12.11
2023-02-18T09:14:37.928Z,11.76
2023-02-18T09:18:04.325Z,11.56
2023-02-18T09:21:29.987Z,11.51
2023-02-18T09:24:51.897Z,11.51
2023-02-18T09:28:14.433Z,11.49
2023-02-18T09:31:38.051Z,11.54
2023-02-18T09:35:02.901Z,11.53
2023-02-18T09:38:24.976Z,11.55
2023-02-18T09:41:51.921Z,11.35
2023-02-18T09:45:13.941Z,11.17
2023-02-18T09:48:44.170Z,11.05
2023-02-18T09:52:23.956Z,10.93
2023-02-18T09:55:49.242Z,11.09
2023-02-18T09:59:25.152Z,11.01
2023-02-18T10:02:56.143Z,10.86
2023-02-18T10:06:24.841Z,10.74
2023-02-18T10:09:47.763Z,10.54
2023-02-18T10:13:28.696Z,10.44
2023-02-18T10:16:51.520Z,10.33
2023-02-18T10:20:17.468Z,10.22
2023-02-18T10:24:01.196Z,10.22
2023-02-18T10:27:28.999Z,10.23
2023-02-18T10:31:04.305Z,10.19
2023-02-18T10:34:48.447Z,10.30
2023-02-18T10:38:32.148Z,10.40
2023-02-18T10:42:31.172Z,10.51
2023-02-18T10:46:05.154Z,10.56
2023-02-18T10:49:45.626Z,10.68
2023-02-18T10:53:34.444Z,10.68
2023-02-18T10:57:00.866Z,10.61
2023-02-18T11:00:25.374Z,10.62
2023-02-18T11:03:49.601Z,10.52
2023-02-18T11:07:32.592Z,10.39
2023-02-18T11:10:55.005Z,10.37
2023-02-18T11:14:21.522Z,10.40
2023-02-18T11:21:24.551Z,10.28
2023-02-18T11:24:48.736Z,10.34
2023-02-18T11:28:16.874Z,10.42
2023-02-18T11:31:45.573Z,10.57
2023-02-18T11:35:07.600Z,10.71
2023-02-18T11:38:42.360Z,10.77
2023-02-18T11:42:07.662Z,10.80
2023-02-18T11:45:34.056Z,10.78
2023-02-18T11:48:56.129Z,10.82
2023-02-18T11:52:27.905Z,10.93
2023-02-18T11:55:56.458Z,11.11
2023-02-18T11:59:18.217Z,11.48
2023-02-18T12:02:40.920Z,11.95
2023-02-18T12:06:06.393Z,12.19
2023-02-18T12:13:22.038Z,12.15
2023-02-18T12:17:17.661Z,12.15
2023-02-18T12:20:49.447Z,12.22
2023-02-18T12:24:18.591Z,12.11
2023-02-18T12:28:04.584Z,11.91
2023-02-18T12:32:04.561Z,11.70
2023-02-18T12:36:17.892Z,11.80
2023-02-18T12:40:04.111Z,12.09
2023-02-18T12:43:42.284Z,12.27
2023-02-18T12:47:13.498Z,12.39
2023-02-18T12:50:55.954Z,12.48
2023-02-18T12:54:54.703Z,12.76
2023-02-18T12:58:25.909Z,13.28
2023-02-18T13:02:15.062Z,13.63
2023-02-18T13:05:55.098Z,14.05
2023-02-18T13:09:30.213Z,14.38
2023-02-18T13:13:01.406Z,14.62
2023-02-18T13:16:24.130Z,14.71
2023-02-18T13:20:07.620Z,14.74
2023-02-18T13:23:33.133Z,14.68
2023-02-18T13:27:22.183Z,14.61
2023-02-18T13:30:52.985Z,14.59
2023-02-18T13:34:46.990Z,14.61
2023-02-18T13:38:30.794Z,14.54
2023-02-18T13:42:12.144Z,14.45
2023-02-18T13:45:34.161Z,14.38
2023-02-18T13:49:04.882Z,14.26
2023-02-18T13:52:27.405Z,14.21
2023-02-18T13:55:54.993Z,14.22
2023-02-18T13:59:45.590Z,14.18
2023-02-18T14:03:42.684Z,14.12
2023-02-18T14:07:23.193Z,14.11
2023-02-18T14:11:14.526Z,14.03
2023-02-18T14:14:38.204Z,14.12
2023-02-18T14:18:15.026Z,13.99
2023-02-18T14:21:39.457Z,13.74
2023-02-18T14:25:16.946Z,13.50
2023-02-18T14:28:45.307Z,13.27
2023-02-18T14:32:11.862Z,13.10
2023-02-18T14:35:42.942Z,12.97
2023-02-18T14:39:42.156Z,12.83
2023-02-18T14:43:16.031Z,12.68
2023-02-18T14:46:57.031Z,12.58
2023-02-18T14:50:25.021Z,12.55
2023-02-18T14:53:47.871Z,12.48
2023-02-18T14:57:18.274Z,12.39
2023-02-18T15:00:42.908Z,12.29
2023-02-18T15:04:05.066Z,12.19
2023-02-18T15:07:27.336Z,12.13
2023-02-18T15:11:05.219Z,12.14
2023-02-18T15:14:34.442Z,12.15
2023-02-18T15:17:56.328Z,12.15
2023-02-18T15:21:31.113Z,12.11
2023-02-18T15:24:55.082Z,12.02
2023-02-18T15:28:26.880Z,11.94
2023-02-18T15:31:49.763Z,11.81
2023-02-18T15:35:18.584Z,11.62
2023-02-18T15:38:44.567Z,11.41
2023-02-18T15:42:23.929Z,11.20
2023-02-18T15:45:47.091Z,10.99
2023-02-18T15:49:08.826Z,10.82
2023-02-18T15:52:33.961Z,10.68
2023-02-18T15:55:56.634Z,10.55
2023-02-18T15:59:43.322Z,10.41
2023-02-18T16:03:16.505Z,10.27
2023-02-18T16:06:45.962Z,10.16
2023-02-18T16:10:44.906Z,10.07
2023-02-18T16:14:07.236Z,9.98
2023-02-18T16:17:30.049Z,9.91
2023-02-18T16:21:02.128Z,9.83
2023-02-18T16:24:29.363Z,9.78
2023-02-18T16:28:03.167Z,9.74
2023-02-18T16:31:25.077Z,9.70
2023-02-18T16:34:49.099Z,9.64
2023-02-18T16:38:20.331Z,9.59
2023-02-18T16:41:42.155Z,9.56
2023-02-18T16:45:06.362Z,9.53
2023-02-18T16:48:32.522Z,9.48
2023-02-18T16:51:54.395Z,9.43
2023-02-18T16:55:24.366Z,9.39
2023-02-18T16:58:46.444Z,9.41
2023-02-18T17:02:18.743Z,9.43
2023-02-18T17:05:41.247Z,9.38
2023-02-18T17:09:03.118Z,9.34
2023-02-18T17:12:25.488Z,9.31
2023-02-18T17:19:26.646Z,9.34
2023-02-18T17:22:48.485Z,9.44
2023-02-18T17:26:32.631Z,9.56
2023-02-18T17:29:57.006Z,9.67
2023-02-18T17:33:19.310Z,9.75
2023-02-18T17:36:45.486Z,9.80
2023-02-18T17:40:20.290Z,9.85
2023-02-18T17:43:42.491Z,9.89
2023-02-18T17:47:04.388Z,9.93
2023-02-18T17:50:26.974Z,9.93
2023-02-18T17:53:49.874Z,9.96
2023-02-18T17:57:11.656Z,9.99
2023-02-18T18:00:36.631Z,10.00
2023-02-18T18:03:58.641Z,10.00
2023-02-18T18:07:20.583Z,9.99
2023-02-18T18:10:50.216Z,9.98
2023-02-18T18:14:14.813Z,9.96
2023-02-18T18:17:39.017Z,10.00
2023-02-18T18:21:01.581Z,10.00
2023-02-18T18:24:23.328Z,10.00
2023-02-18T18:27:45.436Z,10.02
2023-02-18T18:31:14.514Z,10.04
2023-02-18T18:34:36.356Z,10.07
2023-02-18T18:37:59.128Z,10.06
2023-02-18T18:41:22.701Z,10.04
2023-02-18T18:44:44.473Z,10.00
2023-02-18T18:48:09.340Z,9.98
2023-02-18T18:51:32.794Z,10.44
2023-02-18T18:54:55.045Z,10.78
2023-02-18T18:58:26.200Z,10.52
2023-02-18T19:01:48.015Z,10.18
2023-02-18T19:05:21.070Z,9.92
2023-02-18T19:08:43.063Z,9.75
2023-02-18T19:12:04.973Z,9.60
2023-02-18T19:15:27.125Z,9.50
2023-02-18T19:18:49.435Z,9.46
2023-02-18T19:22:11.244Z,9.55
2023-02-18T19:25:33.190Z,9.64
2023-02-18T19:28:55.069Z,9.71
2023-02-18T19:32:16.898Z,9.77
2023-02-18T19:35:40.286Z,9.83
2023-02-18T19:39:02.072Z,9.87
2023-02-18T19:42:23.898Z,9.89
2023-02-18T19:45:47.417Z,9.90
2023-02-18T19:49:11.515Z,9.92
2023-02-18T19:52:33.848Z,9.94
2023-02-18T19:56:02.210Z,9.98
2023-02-18T19:59:24.646Z,10.00
2023-02-18T20:02:46.850Z,10.00
2023-02-18T20:06:19.780Z,10.00
2023-02-18T20:09:41.578Z,10.00
2023-02-18T20:13:05.875Z,10.00
2023-02-18T20:16:27.784Z,9.99
2023-02-18T20:19:49.826Z,9.98
2023-02-18T20:23:11.629Z,9.99
2023-02-18T20:26:33.449Z,9.99
2023-02-18T20:29:55.297Z,9.97
2023-02-18T20:33:17.098Z,9.97
2023-02-18T20:36:39.041Z,9.94
2023-02-18T20:40:01.018Z,9.91
2023-02-18T20:43:23.080Z,9.89
2023-02-18T20:46:45.110Z,9.87
2023-02-18T20:50:07.482Z,9.86
2023-02-18T20:53:33.535Z,9.88
2023-02-18T20:56:55.404Z,9.88
2023-02-18T21:00:17.580Z,9.87
2023-02-18T21:03:39.617Z,9.85
2023-02-18T21:07:01.662Z,9.84
2023-02-18T21:10:24.515Z,9.82
2023-02-18T21:13:48.522Z,9.82
2023-02-18T21:17:10.553Z,9.81
2023-02-18T21:24:08.301Z,9.83
2023-02-18T21:27:30.113Z,9.81
2023-02-18T21:30:51.929Z,9.81
2023-02-18T21:34:17.286Z,9.80
2023-02-18T21:37:39.148Z,9.80
2023-02-18T21:41:04.793Z,9.78
2023-02-18T21:44:40.189Z,9.76
2023-02-18T21:48:22.494Z,9.74
2023-02-18T21:51:59.275Z,9.70
2023-02-18T21:55:21.082Z,9.64
2023-02-18T21:58:44.352Z,9.58
2023-02-18T22:02:07.497Z,9.55
2023-02-18T22:05:30.864Z,9.50
2023-02-18T22:08:52.904Z,9.43
2023-02-18T22:12:15.073Z,9.38
2023-02-18T22:15:36.881Z,9.33
2023-02-18T22:18:58.826Z,9.27
2023-02-18T22:22:20.668Z,9.25
2023-02-18T22:25:42.474Z,9.36
2023-02-18T22:29:04.666Z,9.49
2023-02-18T22:32:26.565Z,9.59
2023-02-18T22:35:48.362Z,9.68
2023-02-18T22:39:11.091Z,9.75
2023-02-18T22:46:20.265Z,9.85
2023-02-18T22:49:44.439Z,9.81
2023-02-18T22:53:06.264Z,9.78
2023-02-18T22:56:29.426Z,10.17
2023-02-18T22:59:51.353Z,10.41
2023-02-18T23:03:13.147Z,10.43
2023-02-18T23:06:36.400Z,10.39
2023-02-18T23:09:58.299Z,10.37
2023-02-18T23:13:20.130Z,10.35
2023-02-18T23:17:00.557Z,10.33
2023-02-18T23:20:42.365Z,10.30
2023-02-18T23:24:04.426Z,10.28
2023-02-18T23:27:26.896Z,10.26
2023-02-18T23:30:48.728Z,10.25
2023-02-18T23:34:15.663Z,10.24
2023-02-18T23:37:56.269Z,10.22
2023-02-18T23:41:19.481Z,10.20
2023-02-18T23:44:41.442Z,10.20
2023-02-18T23:48:03.335Z,10.19
2023-02-18T23:51:25.170Z,10.17
2023-02-18T23:54:47.134Z,10.16
2023-02-18T23:58:08.929Z,10.16
